sensor_id;sensor_type;location;lat;lon;timestamp;P1;durP1;ratioP1;P2;durP2;ratioP2
80707;SDS011;70074;49.204;-122.940;2023-05-10T04:43:18;2.67;;;1.10;;
80707;SDS011;70074;49.204;-122.940;2023-05-10T04:45:45;1.63;;;1.13;;
80707;SDS011;70074;49.204;-122.940;2023-05-10T04:48:11;1.83;;;1.05;;
80707;SDS011;70074;49.204;-122.940;2023-05-10T04:50:37;1.58;;;1.25;;
80707;SDS011;70074;49.204;-122.940;2023-05-10T04:53:04;1.58;;;1.02;;
80707;SDS011;70074;49.204;-122.940;2023-05-10T04:55:30;0.98;;;0.88;;
80707;SDS011;70074;49.204;-122.940;2023-05-10T04:57:56;1.23;;;1.13;;
80707;SDS011;70074;49.204;-122.940;2023-05-10T05:00:24;1.17;;;1.08;;
80707;SDS011;70074;49.204;-122.940;2023-05-10T05:02:50;1.60;;;1.20;;
80707;SDS011;70074;49.204;-122.940;2023-05-10T05:05:16;2.05;;;1.25;;
80707;SDS011;70074;49.204;-122.940;2023-05-10T05:07:42;1.63;;;1.30;;
80707;SDS011;70074;49.204;-122.940;2023-05-10T05:10:08;1.13;;;1.02;;
80707;SDS011;70074;49.204;-122.940;2023-05-10T05:12:35;1.48;;;1.23;;
80707;SDS011;70074;49.204;-122.940;2023-05-10T05:15:01;1.52;;;1.20;;
80707;SDS011;70074;49.204;-122.940;2023-05-10T05:17:29;2.22;;;1.27;;
80707;SDS011;70074;49.204;-122.940;2023-05-10T05:19:56;1.33;;;1.10;;
80707;SDS011;70074;49.204;-122.940;2023-05-10T05:22:22;1.42;;;1.10;;
80707;SDS011;70074;49.204;-122.940;2023-05-10T05:24:56;1.35;;;1.10;;
80707;SDS011;70074;49.204;-122.940;2023-05-10T05:27:23;1.48;;;1.23;;
80707;SDS011;70074;49.204;-122.940;2023-05-10T05:29:57;1.60;;;1.20;;
80707;SDS011;70074;49.204;-122.940;2023-05-10T05:32:24;1.77;;;1.20;;
80707;SDS011;70074;49.204;-122.940;2023-05-10T05:34:50;1.45;;;1.20;;
80707;SDS011;70074;49.204;-122.940;2023-05-10T05:37:17;1.17;;;1.02;;
80707;SDS011;70074;49.204;-122.940;2023-05-10T05:39:45;1.90;;;1.63;;
80707;SDS011;70074;49.204;-122.940;2023-05-10T05:42:11;1.83;;;1.10;;
80707;SDS011;70074;49.204;-122.940;2023-05-10T05:44:38;1.25;;;1.15;;
80707;SDS011;70074;49.204;-122.940;2023-05-10T05:47:04;1.55;;;1.02;;
80707;SDS011;70074;49.204;-122.940;2023-05-10T05:49:30;1.30;;;1.20;;
80707;SDS011;70074;49.204;-122.940;2023-05-10T05:52:00;2.00;;;1.30;;
80707;SDS011;70074;49.204;-122.940;2023-05-10T05:54:26;1.20;;;1.10;;
80707;SDS011;70074;49.204;-122.940;2023-05-10T05:56:56;1.30;;;1.05;;
80707;SDS011;70074;49.204;-122.940;2023-05-10T05:59:23;1.13;;;1.00;;
80707;SDS011;70074;49.204;-122.940;2023-05-10T06:01:49;1.50;;;1.00;;
80707;SDS011;70074;49.204;-122.940;2023-05-10T06:04:16;1.25;;;1.05;;
80707;SDS011;70074;49.204;-122.940;2023-05-10T06:06:42;4.50;;;2.38;;
80707;SDS011;70074;49.204;-122.940;2023-05-10T06:09:09;5.47;;;2.70;;
80707;SDS011;70074;49.204;-122.940;2023-05-10T06:11:35;4.90;;;3.10;;
80707;SDS011;70074;49.204;-122.940;2023-05-10T06:14:02;5.30;;;2.95;;
80707;SDS011;70074;49.204;-122.940;2023-05-10T06:16:35;5.90;;;2.53;;
80707;SDS011;70074;49.204;-122.940;2023-05-10T06:19:02;5.15;;;3.47;;
80707;SDS011;70074;49.204;-122.940;2023-05-10T06:21:28;4.80;;;2.92;;
80707;SDS011;70074;49.204;-122.940;2023-05-10T06:23:55;6.15;;;2.70;;
80707;SDS011;70074;49.204;-122.940;2023-05-10T06:26:21;5.95;;;3.28;;
80707;SDS011;70074;49.204;-122.940;2023-05-10T06:28:47;6.70;;;3.63;;
80707;SDS011;70074;49.204;-122.940;2023-05-10T06:31:13;5.93;;;2.83;;
80707;SDS011;70074;49.204;-122.940;2023-05-10T06:33:39;4.55;;;2.92;;
80707;SDS011;70074;49.204;-122.940;2023-05-10T06:36:06;4.70;;;2.70;;
80707;SDS011;70074;49.204;-122.940;2023-05-10T06:38:32;4.55;;;2.63;;
80707;SDS011;70074;49.204;-122.940;2023-05-10T06:40:58;5.13;;;2.88;;
80707;SDS011;70074;49.204;-122.940;2023-05-10T06:43:24;5.45;;;3.17;;
80707;SDS011;70074;49.204;-122.940;2023-05-10T06:45:51;7.57;;;3.47;;
80707;SDS011;70074;49.204;-122.940;2023-05-10T06:48:17;7.35;;;3.65;;
80707;SDS011;70074;49.204;-122.940;2023-05-10T06:50:43;7.18;;;4.35;;
80707;SDS011;70074;49.204;-122.940;2023-05-10T06:53:10;5.43;;;3.38;;
80707;SDS011;70074;49.204;-122.940;2023-05-10T06:55:37;9.05;;;4.40;;
80707;SDS011;70074;49.204;-122.940;2023-05-10T06:58:03;5.57;;;3.45;;
80707;SDS011;70074;49.204;-122.940;2023-05-10T07:00:29;7.82;;;3.95;;
80707;SDS011;70074;49.204;-122.940;2023-05-10T07:02:55;7.50;;;3.95;;
80707;SDS011;70074;49.204;-122.940;2023-05-10T07:05:21;5.35;;;3.55;;
80707;SDS011;70074;49.204;-122.940;2023-05-10T07:07:47;6.70;;;4.07;;
80707;SDS011;70074;49.204;-122.940;2023-05-10T07:10:14;13.60;;;4.15;;
80707;SDS011;70074;49.204;-122.940;2023-05-10T07:12:40;6.43;;;3.75;;
80707;SDS011;70074;49.204;-122.940;2023-05-10T07:15:06;7.07;;;3.75;;
80707;SDS011;70074;49.204;-122.940;2023-05-10T07:17:33;6.63;;;3.63;;
80707;SDS011;70074;49.204;-122.940;2023-05-10T07:19:59;8.55;;;3.75;;
80707;SDS011;70074;49.204;-122.940;2023-05-10T07:22:26;7.65;;;4.00;;
80707;SDS011;70074;49.204;-122.940;2023-05-10T07:24:52;6.15;;;3.58;;
80707;SDS011;70074;49.204;-122.940;2023-05-10T07:27:19;8.00;;;3.92;;
80707;SDS011;70074;49.204;-122.940;2023-05-10T07:29:45;7.13;;;4.35;;
80707;SDS011;70074;49.204;-122.940;2023-05-10T07:32:11;7.60;;;3.90;;
80707;SDS011;70074;49.204;-122.940;2023-05-10T07:34:37;6.75;;;4.43;;
80707;SDS011;70074;49.204;-122.940;2023-05-10T07:37:03;7.70;;;4.13;;
80707;SDS011;70074;49.204;-122.940;2023-05-10T07:39:31;8.10;;;4.07;;
80707;SDS011;70074;49.204;-122.940;2023-05-10T07:41:57;9.45;;;4.38;;
80707;SDS011;70074;49.204;-122.940;2023-05-10T07:44:23;8.35;;;4.43;;
80707;SDS011;70074;49.204;-122.940;2023-05-10T07:46:49;7.47;;;4.70;;
80707;SDS011;70074;49.204;-122.940;2023-05-10T07:49:16;7.68;;;4.18;;
80707;SDS011;70074;49.204;-122.940;2023-05-10T07:51:42;7.57;;;4.05;;
80707;SDS011;70074;49.204;-122.940;2023-05-10T07:54:08;7.70;;;3.90;;
80707;SDS011;70074;49.204;-122.940;2023-05-10T07:56:34;6.18;;;3.97;;
80707;SDS011;70074;49.204;-122.940;2023-05-10T07:59:03;7.72;;;4.20;;
80707;SDS011;70074;49.204;-122.940;2023-05-10T08:01:33;8.70;;;4.60;;
80707;SDS011;70074;49.204;-122.940;2023-05-10T08:04:00;5.57;;;4.20;;
80707;SDS011;70074;49.204;-122.940;2023-05-10T08:06:27;6.43;;;4.03;;
80707;SDS011;70074;49.204;-122.940;2023-05-10T08:08:55;6.45;;;4.05;;
80707;SDS011;70074;49.204;-122.940;2023-05-10T08:11:21;8.32;;;4.47;;
80707;SDS011;70074;49.204;-122.940;2023-05-10T08:13:48;8.45;;;4.57;;
80707;SDS011;70074;49.204;-122.940;2023-05-10T08:16:15;6.57;;;4.45;;
80707;SDS011;70074;49.204;-122.940;2023-05-10T08:18:42;8.65;;;3.90;;
80707;SDS011;70074;49.204;-122.940;2023-05-10T08:21:13;8.77;;;4.13;;
80707;SDS011;70074;49.204;-122.940;2023-05-10T08:23:39;6.75;;;4.25;;
80707;SDS011;70074;49.204;-122.940;2023-05-10T08:26:09;6.70;;;4.05;;
80707;SDS011;70074;49.204;-122.940;2023-05-10T08:28:35;10.30;;;5.00;;
80707;SDS011;70074;49.204;-122.940;2023-05-10T08:31:01;6.22;;;3.65;;
80707;SDS011;70074;49.204;-122.940;2023-05-10T08:33:27;8.93;;;4.55;;
80707;SDS011;70074;49.204;-122.940;2023-05-10T08:35:53;5.30;;;3.60;;
80707;SDS011;70074;49.204;-122.940;2023-05-10T08:38:19;7.90;;;3.60;;
80707;SDS011;70074;49.204;-122.940;2023-05-10T08:40:46;6.63;;;3.70;;
80707;SDS011;70074;49.204;-122.940;2023-05-10T08:43:13;7.45;;;3.83;;
80707;SDS011;70074;49.204;-122.940;2023-05-10T08:45:43;8.02;;;4.32;;
80707;SDS011;70074;49.204;-122.940;2023-05-10T08:48:13;7.18;;;3.70;;
80707;SDS011;70074;49.204;-122.940;2023-05-10T08:50:40;6.07;;;3.83;;
80707;SDS011;70074;49.204;-122.940;2023-05-10T08:53:12;5.55;;;3.63;;
80707;SDS011;70074;49.204;-122.940;2023-05-10T08:55:39;9.25;;;3.58;;
80707;SDS011;70074;49.204;-122.940;2023-05-10T08:58:07;8.18;;;4.07;;
80707;SDS011;70074;49.204;-122.940;2023-05-10T09:00:34;4.97;;;3.30;;
80707;SDS011;70074;49.204;-122.940;2023-05-10T09:03:02;5.60;;;3.13;;
80707;SDS011;70074;49.204;-122.940;2023-05-10T09:05:30;5.35;;;3.15;;
80707;SDS011;70074;49.204;-122.940;2023-05-10T09:07:56;6.68;;;3.65;;
80707;SDS011;70074;49.204;-122.940;2023-05-10T09:10:25;7.07;;;3.85;;
80707;SDS011;70074;49.204;-122.940;2023-05-10T09:12:52;7.43;;;3.25;;
80707;SDS011;70074;49.204;-122.940;2023-05-10T09:15:19;6.25;;;3.42;;
80707;SDS011;70074;49.204;-122.940;2023-05-10T09:17:45;5.00;;;3.38;;
80707;SDS011;70074;49.204;-122.940;2023-05-10T09:22:38;4.07;;;3.28;;
80707;SDS011;70074;49.204;-122.940;2023-05-10T09:27:32;7.57;;;2.92;;
80707;SDS011;70074;49.204;-122.940;2023-05-10T09:29:59;5.55;;;2.95;;
80707;SDS011;70074;49.204;-122.940;2023-05-10T09:32:41;6.18;;;3.83;;
80707;SDS011;70074;49.204;-122.940;2023-05-10T09:35:14;5.60;;;3.17;;
80707;SDS011;70074;49.204;-122.940;2023-05-10T09:37:45;4.80;;;3.33;;
80707;SDS011;70074;49.204;-122.940;2023-05-10T09:40:20;7.38;;;3.40;;
80707;SDS011;70074;49.204;-122.940;2023-05-10T09:43:00;6.57;;;3.50;;
80707;SDS011;70074;49.204;-122.940;2023-05-10T09:45:33;5.82;;;2.78;;
80707;SDS011;70074;49.204;-122.940;2023-05-10T09:48:00;8.32;;;3.15;;
80707;SDS011;70074;49.204;-122.940;2023-05-10T09:50:28;5.40;;;3.03;;
80707;SDS011;70074;49.204;-122.940;2023-05-10T09:52:56;5.25;;;3.10;;
80707;SDS011;70074;49.204;-122.940;2023-05-10T09:55:24;4.50;;;2.70;;
80707;SDS011;70074;49.204;-122.940;2023-05-10T09:57:59;5.88;;;3.13;;
80707;SDS011;70074;49.204;-122.940;2023-05-10T10:00:26;4.85;;;2.90;;
80707;SDS011;70074;49.204;-122.940;2023-05-10T10:02:57;5.45;;;3.00;;
80707;SDS011;70074;49.204;-122.940;2023-05-10T10:05:33;6.07;;;3.60;;
80707;SDS011;70074;49.204;-122.940;2023-05-10T10:08:04;5.30;;;2.97;;
80707;SDS011;70074;49.204;-122.940;2023-05-10T10:10:31;4.00;;;2.92;;
80707;SDS011;70074;49.204;-122.940;2023-05-10T10:12:58;5.15;;;2.92;;
80707;SDS011;70074;49.204;-122.940;2023-05-10T10:15:25;4.60;;;2.85;;
80707;SDS011;70074;49.204;-122.940;2023-05-10T10:17:51;3.60;;;2.45;;
80707;SDS011;70074;49.204;-122.940;2023-05-10T10:22:45;3.85;;;2.83;;
80707;SDS011;70074;49.204;-122.940;2023-05-10T10:25:15;6.03;;;2.85;;
80707;SDS011;70074;49.204;-122.940;2023-05-10T10:30:23;6.65;;;2.78;;
80707;SDS011;70074;49.204;-122.940;2023-05-10T10:35:49;4.55;;;2.80;;
80707;SDS011;70074;49.204;-122.940;2023-05-10T10:38:15;4.38;;;2.92;;
80707;SDS011;70074;49.204;-122.940;2023-05-10T10:40:42;6.07;;;3.15;;
80707;SDS011;70074;49.204;-122.940;2023-05-10T10:43:21;4.65;;;2.92;;
80707;SDS011;70074;49.204;-122.940;2023-05-10T10:48:40;5.15;;;2.83;;
80707;SDS011;70074;49.204;-122.940;2023-05-10T10:51:07;4.97;;;3.45;;
80707;SDS011;70074;49.204;-122.940;2023-05-10T10:53:33;4.82;;;3.30;;
80707;SDS011;70074;49.204;-122.940;2023-05-10T10:56:06;5.93;;;2.80;;
80707;SDS011;70074;49.204;-122.940;2023-05-10T10:58:34;4.63;;;3.05;;
80707;SDS011;70074;49.204;-122.940;2023-05-10T11:01:12;8.05;;;2.83;;
80707;SDS011;70074;49.204;-122.940;2023-05-10T11:03:39;5.55;;;3.05;;
80707;SDS011;70074;49.204;-122.940;2023-05-10T11:06:06;4.20;;;2.88;;
80707;SDS011;70074;49.204;-122.940;2023-05-10T11:08:34;4.10;;;2.65;;
80707;SDS011;70074;49.204;-122.940;2023-05-10T11:11:08;7.10;;;2.80;;
80707;SDS011;70074;49.204;-122.940;2023-05-10T11:13:37;7.30;;;2.95;;
80707;SDS011;70074;49.204;-122.940;2023-05-10T11:16:11;3.45;;;2.55;;
80707;SDS011;70074;49.204;-122.940;2023-05-10T11:18:39;5.05;;;3.00;;
80707;SDS011;70074;49.204;-122.940;2023-05-10T11:21:07;6.43;;;3.08;;
80707;SDS011;70074;49.204;-122.940;2023-05-10T11:26:14;3.38;;;2.67;;
80707;SDS011;70074;49.204;-122.940;2023-05-10T11:28:43;4.75;;;2.80;;
80707;SDS011;70074;49.204;-122.940;2023-05-10T11:31:11;4.40;;;2.70;;
80707;SDS011;70074;49.204;-122.940;2023-05-10T11:33:48;4.47;;;2.90;;
80707;SDS011;70074;49.204;-122.940;2023-05-10T11:36:19;4.00;;;2.60;;
80707;SDS011;70074;49.204;-122.940;2023-05-10T11:38:49;5.38;;;2.60;;
80707;SDS011;70074;49.204;-122.940;2023-05-10T11:41:16;3.65;;;2.47;;
80707;SDS011;70074;49.204;-122.940;2023-05-10T11:43:43;3.97;;;2.63;;
80707;SDS011;70074;49.204;-122.940;2023-05-10T11:46:12;5.25;;;3.15;;
80707;SDS011;70074;49.204;-122.940;2023-05-10T11:48:39;3.35;;;2.45;;
80707;SDS011;70074;49.204;-122.940;2023-05-10T11:51:06;6.15;;;2.70;;
80707;SDS011;70074;49.204;-122.940;2023-05-10T11:56:06;4.47;;;2.92;;
80707;SDS011;70074;49.204;-122.940;2023-05-10T11:58:33;4.78;;;2.80;;
80707;SDS011;70074;49.204;-122.940;2023-05-10T12:00:59;5.05;;;2.72;;
80707;SDS011;70074;49.204;-122.940;2023-05-10T12:03:29;4.10;;;2.88;;
80707;SDS011;70074;49.204;-122.940;2023-05-10T12:05:56;4.97;;;2.97;;
80707;SDS011;70074;49.204;-122.940;2023-05-10T12:08:24;4.95;;;2.83;;
80707;SDS011;70074;49.204;-122.940;2023-05-10T12:10:51;4.93;;;3.17;;
80707;SDS011;70074;49.204;-122.940;2023-05-10T12:13:19;5.90;;;3.03;;
80707;SDS011;70074;49.204;-122.940;2023-05-10T12:18:11;4.50;;;3.30;;
80707;SDS011;70074;49.204;-122.940;2023-05-10T12:20:40;6.53;;;3.17;;
80707;SDS011;70074;49.204;-122.940;2023-05-10T12:23:08;5.28;;;3.00;;
80707;SDS011;70074;49.204;-122.940;2023-05-10T12:25:35;4.25;;;2.83;;
80707;SDS011;70074;49.204;-122.940;2023-05-10T12:28:03;4.40;;;3.03;;
80707;SDS011;70074;49.204;-122.940;2023-05-10T12:30:32;5.07;;;3.20;;
80707;SDS011;70074;49.204;-122.940;2023-05-10T12:33:00;4.40;;;3.00;;
80707;SDS011;70074;49.204;-122.940;2023-05-10T12:35:32;4.95;;;3.08;;
80707;SDS011;70074;49.204;-122.940;2023-05-10T12:37:58;4.68;;;2.95;;
80707;SDS011;70074;49.204;-122.940;2023-05-10T12:40:24;6.05;;;2.90;;
80707;SDS011;70074;49.204;-122.940;2023-05-10T12:42:51;4.82;;;3.10;;
80707;SDS011;70074;49.204;-122.940;2023-05-10T12:45:17;6.30;;;2.83;;
80707;SDS011;70074;49.204;-122.940;2023-05-10T12:47:44;7.75;;;3.08;;
80707;SDS011;70074;49.204;-122.940;2023-05-10T12:50:10;3.53;;;2.90;;
80707;SDS011;70074;49.204;-122.940;2023-05-10T12:52:36;4.30;;;2.85;;
80707;SDS011;70074;49.204;-122.940;2023-05-10T12:55:02;3.47;;;2.75;;
80707;SDS011;70074;49.204;-122.940;2023-05-10T12:57:28;4.22;;;3.00;;
80707;SDS011;70074;49.204;-122.940;2023-05-10T12:59:55;4.50;;;2.85;;
80707;SDS011;70074;49.204;-122.940;2023-05-10T13:02:21;5.13;;;3.40;;
80707;SDS011;70074;49.204;-122.940;2023-05-10T13:04:48;5.72;;;3.25;;
80707;SDS011;70074;49.204;-122.940;2023-05-10T13:07:15;4.88;;;3.50;;
80707;SDS011;70074;49.204;-122.940;2023-05-10T13:09:41;4.53;;;2.90;;
80707;SDS011;70074;49.204;-122.940;2023-05-10T13:12:07;6.88;;;3.33;;
80707;SDS011;70074;49.204;-122.940;2023-05-10T13:14:33;3.85;;;2.72;;
80707;SDS011;70074;49.204;-122.940;2023-05-10T13:16:59;6.05;;;3.30;;
80707;SDS011;70074;49.204;-122.940;2023-05-10T13:19:25;6.53;;;3.03;;
80707;SDS011;70074;49.204;-122.940;2023-05-10T13:21:51;6.30;;;3.55;;
80707;SDS011;70074;49.204;-122.940;2023-05-10T13:24:18;5.38;;;3.33;;
80707;SDS011;70074;49.204;-122.940;2023-05-10T13:26:44;4.95;;;3.08;;
80707;SDS011;70074;49.204;-122.940;2023-05-10T13:29:10;5.78;;;3.67;;
80707;SDS011;70074;49.204;-122.940;2023-05-10T13:31:36;6.93;;;3.60;;
80707;SDS011;70074;49.204;-122.940;2023-05-10T13:34:03;5.68;;;3.33;;
80707;SDS011;70074;49.204;-122.940;2023-05-10T13:36:29;5.97;;;3.42;;
80707;SDS011;70074;49.204;-122.940;2023-05-10T13:38:55;5.43;;;3.05;;
80707;SDS011;70074;49.204;-122.940;2023-05-10T13:41:21;5.70;;;3.42;;
80707;SDS011;70074;49.204;-122.940;2023-05-10T13:43:48;6.03;;;3.42;;
80707;SDS011;70074;49.204;-122.940;2023-05-10T13:46:14;4.80;;;3.33;;
80707;SDS011;70074;49.204;-122.940;2023-05-10T13:48:40;4.32;;;3.28;;
80707;SDS011;70074;49.204;-122.940;2023-05-10T13:51:06;4.30;;;3.08;;
80707;SDS011;70074;49.204;-122.940;2023-05-10T13:53:33;4.38;;;3.22;;
80707;SDS011;70074;49.204;-122.940;2023-05-10T13:55:59;6.55;;;3.53;;
80707;SDS011;70074;49.204;-122.940;2023-05-10T13:58:25;4.50;;;3.35;;
80707;SDS011;70074;49.204;-122.940;2023-05-10T14:00:51;5.82;;;3.03;;
80707;SDS011;70074;49.204;-122.940;2023-05-10T14:03:17;5.32;;;3.10;;
80707;SDS011;70074;49.204;-122.940;2023-05-10T14:05:44;4.07;;;3.22;;
80707;SDS011;70074;49.204;-122.940;2023-05-10T14:08:10;5.53;;;3.35;;
80707;SDS011;70074;49.204;-122.940;2023-05-10T14:10:38;6.80;;;3.38;;
80707;SDS011;70074;49.204;-122.940;2023-05-10T14:13:05;5.88;;;3.38;;
80707;SDS011;70074;49.204;-122.940;2023-05-10T14:15:31;5.80;;;3.20;;
80707;SDS011;70074;49.204;-122.940;2023-05-10T14:17:57;4.95;;;3.03;;
80707;SDS011;70074;49.204;-122.940;2023-05-10T14:20:23;5.10;;;3.42;;
80707;SDS011;70074;49.204;-122.940;2023-05-10T14:22:50;5.38;;;3.35;;
80707;SDS011;70074;49.204;-122.940;2023-05-10T14:25:16;7.03;;;3.42;;
80707;SDS011;70074;49.204;-122.940;2023-05-10T14:27:42;6.30;;;3.88;;
80707;SDS011;70074;49.204;-122.940;2023-05-10T14:30:08;5.93;;;3.70;;
80707;SDS011;70074;49.204;-122.940;2023-05-10T14:32:35;7.28;;;4.18;;
80707;SDS011;70074;49.204;-122.940;2023-05-10T14:35:02;8.23;;;3.50;;
80707;SDS011;70074;49.204;-122.940;2023-05-10T14:37:30;7.45;;;4.10;;
80707;SDS011;70074;49.204;-122.940;2023-05-10T14:39:56;7.32;;;4.00;;
80707;SDS011;70074;49.204;-122.940;2023-05-10T14:42:24;8.98;;;3.75;;
80707;SDS011;70074;49.204;-122.940;2023-05-10T14:44:50;5.53;;;3.50;;
80707;SDS011;70074;49.204;-122.940;2023-05-10T14:47:16;6.38;;;3.22;;
80707;SDS011;70074;49.204;-122.940;2023-05-10T14:49:42;5.25;;;3.35;;
80707;SDS011;70074;49.204;-122.940;2023-05-10T14:52:08;7.75;;;3.47;;
80707;SDS011;70074;49.204;-122.940;2023-05-10T14:54:37;5.22;;;3.17;;
80707;SDS011;70074;49.204;-122.940;2023-05-10T14:57:03;8.52;;;4.35;;
80707;SDS011;70074;49.204;-122.940;2023-05-10T14:59:30;9.15;;;3.42;;
80707;SDS011;70074;49.204;-122.940;2023-05-10T15:01:56;5.28;;;3.38;;
80707;SDS011;70074;49.204;-122.940;2023-05-10T15:04:22;6.38;;;3.50;;
80707;SDS011;70074;49.204;-122.940;2023-05-10T15:06:48;5.55;;;3.72;;
80707;SDS011;70074;49.204;-122.940;2023-05-10T15:09:14;5.45;;;3.47;;
80707;SDS011;70074;49.204;-122.940;2023-05-10T15:11:41;8.50;;;3.88;;
80707;SDS011;70074;49.204;-122.940;2023-05-10T15:14:08;7.82;;;4.22;;
80707;SDS011;70074;49.204;-122.940;2023-05-10T15:16:34;7.22;;;4.40;;
80707;SDS011;70074;49.204;-122.940;2023-05-10T15:19:00;10.45;;;4.90;;
80707;SDS011;70074;49.204;-122.940;2023-05-10T15:21:26;7.45;;;4.30;;
80707;SDS011;70074;49.204;-122.940;2023-05-10T15:23:53;6.78;;;4.72;;
80707;SDS011;70074;49.204;-122.940;2023-05-10T15:26:19;8.68;;;5.10;;
80707;SDS011;70074;49.204;-122.940;2023-05-10T15:31:12;8.90;;;5.03;;
80707;SDS011;70074;49.204;-122.940;2023-05-10T15:33:38;7.50;;;5.10;;
80707;SDS011;70074;49.204;-122.940;2023-05-10T15:36:04;11.55;;;5.35;;
80707;SDS011;70074;49.204;-122.940;2023-05-10T15:38:31;9.85;;;5.72;;
80707;SDS011;70074;49.204;-122.940;2023-05-10T15:40:57;12.25;;;5.55;;
80707;SDS011;70074;49.204;-122.940;2023-05-10T15:43:23;8.13;;;5.72;;
80707;SDS011;70074;49.204;-122.940;2023-05-10T15:45:49;10.40;;;5.50;;
80707;SDS011;70074;49.204;-122.940;2023-05-10T15:48:15;9.38;;;5.22;;
80707;SDS011;70074;49.204;-122.940;2023-05-10T15:50:42;8.00;;;5.22;;
80707;SDS011;70074;49.204;-122.940;2023-05-10T15:53:08;9.45;;;6.18;;
80707;SDS011;70074;49.204;-122.940;2023-05-10T15:55:34;10.82;;;5.50;;
80707;SDS011;70074;49.204;-122.940;2023-05-10T15:58:01;8.65;;;5.10;;
80707;SDS011;70074;49.204;-122.940;2023-05-10T16:00:27;9.00;;;5.22;;
80707;SDS011;70074;49.204;-122.940;2023-05-10T16:02:54;7.35;;;4.03;;
80707;SDS011;70074;49.204;-122.940;2023-05-10T16:05:23;8.10;;;3.67;;
80707;SDS011;70074;49.204;-122.940;2023-05-10T16:07:51;7.47;;;4.28;;
80707;SDS011;70074;49.204;-122.940;2023-05-10T16:10:17;8.82;;;4.40;;
80707;SDS011;70074;49.204;-122.940;2023-05-10T16:12:43;8.05;;;5.40;;
80707;SDS011;70074;49.204;-122.940;2023-05-10T16:15:10;8.80;;;5.68;;
80707;SDS011;70074;49.204;-122.940;2023-05-10T16:17:36;10.75;;;5.25;;
80707;SDS011;70074;49.204;-122.940;2023-05-10T16:20:02;7.05;;;4.88;;
80707;SDS011;70074;49.204;-122.940;2023-05-10T16:22:28;8.65;;;4.93;;
80707;SDS011;70074;49.204;-122.940;2023-05-10T16:24:58;8.80;;;4.28;;
80707;SDS011;70074;49.204;-122.940;2023-05-10T16:27:24;6.60;;;4.38;;
80707;SDS011;70074;49.204;-122.940;2023-05-10T16:29:52;6.57;;;4.10;;
80707;SDS011;70074;49.204;-122.940;2023-05-10T16:32:19;6.63;;;4.00;;
80707;SDS011;70074;49.204;-122.940;2023-05-10T16:34:45;5.65;;;3.58;;
80707;SDS011;70074;49.204;-122.940;2023-05-10T16:37:11;5.10;;;3.53;;
80707;SDS011;70074;49.204;-122.940;2023-05-10T16:39:37;7.75;;;4.50;;
80707;SDS011;70074;49.204;-122.940;2023-05-10T16:42:03;9.68;;;4.85;;
80707;SDS011;70074;49.204;-122.940;2023-05-10T16:44:29;9.15;;;4.32;;
80707;SDS011;70074;49.204;-122.940;2023-05-10T16:46:56;7.10;;;5.22;;
80707;SDS011;70074;49.204;-122.940;2023-05-10T16:49:22;6.72;;;4.50;;
80707;SDS011;70074;49.204;-122.940;2023-05-10T16:51:48;8.20;;;4.03;;
80707;SDS011;70074;49.204;-122.940;2023-05-10T16:54:14;7.53;;;4.05;;
80707;SDS011;70074;49.204;-122.940;2023-05-10T16:56:41;8.23;;;4.40;;
80707;SDS011;70074;49.204;-122.940;2023-05-10T16:59:07;6.82;;;4.18;;
80707;SDS011;70074;49.204;-122.940;2023-05-10T17:01:33;8.23;;;4.40;;
80707;SDS011;70074;49.204;-122.940;2023-05-10T17:03:59;5.95;;;4.15;;
80707;SDS011;70074;49.204;-122.940;2023-05-10T17:06:25;5.80;;;3.78;;
80707;SDS011;70074;49.204;-122.940;2023-05-10T17:08:51;5.55;;;3.47;;
80707;SDS011;70074;49.204;-122.940;2023-05-10T17:11:18;7.00;;;4.40;;
80707;SDS011;70074;49.204;-122.940;2023-05-10T17:13:46;9.35;;;4.65;;
80707;SDS011;70074;49.204;-122.940;2023-05-10T17:16:12;8.35;;;4.45;;
80707;SDS011;70074;49.204;-122.940;2023-05-10T17:18:39;7.45;;;4.15;;
80707;SDS011;70074;49.204;-122.940;2023-05-10T17:21:06;7.13;;;4.10;;
80707;SDS011;70074;49.204;-122.940;2023-05-10T17:23:33;6.57;;;3.97;;
80707;SDS011;70074;49.204;-122.940;2023-05-10T17:26:02;8.60;;;4.90;;
80707;SDS011;70074;49.204;-122.940;2023-05-10T17:28:28;8.68;;;5.30;;
80707;SDS011;70074;49.204;-122.940;2023-05-10T17:30:55;10.98;;;5.10;;
80707;SDS011;70074;49.204;-122.940;2023-05-10T17:33:22;7.43;;;4.90;;
80707;SDS011;70074;49.204;-122.940;2023-05-10T17:35:48;10.52;;;5.28;;
80707;SDS011;70074;49.204;-122.940;2023-05-10T17:38:15;10.75;;;5.20;;
80707;SDS011;70074;49.204;-122.940;2023-05-10T17:40:41;12.35;;;6.32;;
80707;SDS011;70074;49.204;-122.940;2023-05-10T17:43:07;10.27;;;6.20;;
80707;SDS011;70074;49.204;-122.940;2023-05-10T17:45:33;10.93;;;6.60;;
80707;SDS011;70074;49.204;-122.940;2023-05-10T17:47:59;7.75;;;5.70;;
80707;SDS011;70074;49.204;-122.940;2023-05-10T17:50:26;8.30;;;4.65;;
80707;SDS011;70074;49.204;-122.940;2023-05-10T17:52:52;9.85;;;4.82;;
80707;SDS011;70074;49.204;-122.940;2023-05-10T17:55:18;10.30;;;5.03;;
80707;SDS011;70074;49.204;-122.940;2023-05-10T17:57:44;9.50;;;5.00;;
80707;SDS011;70074;49.204;-122.940;2023-05-10T18:00:10;12.32;;;5.50;;
80707;SDS011;70074;49.204;-122.940;2023-05-10T18:02:37;9.65;;;6.15;;
80707;SDS011;70074;49.204;-122.940;2023-05-10T18:05:03;11.30;;;5.82;;
80707;SDS011;70074;49.204;-122.940;2023-05-10T18:07:30;9.70;;;5.82;;
80707;SDS011;70074;49.204;-122.940;2023-05-10T18:09:56;10.95;;;6.00;;
80707;SDS011;70074;49.204;-122.940;2023-05-10T18:12:23;11.88;;;5.70;;
80707;SDS011;70074;49.204;-122.940;2023-05-10T18:14:49;10.73;;;5.32;;
80707;SDS011;70074;49.204;-122.940;2023-05-10T18:17:15;9.65;;;5.97;;
80707;SDS011;70074;49.204;-122.940;2023-05-10T18:19:42;10.00;;;6.35;;
80707;SDS011;70074;49.204;-122.940;2023-05-10T18:22:08;12.63;;;7.13;;
80707;SDS011;70074;49.204;-122.940;2023-05-10T18:24:34;12.93;;;7.25;;
80707;SDS011;70074;49.204;-122.940;2023-05-10T18:27:00;12.00;;;6.82;;
80707;SDS011;70074;49.204;-122.940;2023-05-10T18:29:27;9.73;;;5.78;;
80707;SDS011;70074;49.204;-122.940;2023-05-10T18:31:53;9.88;;;5.57;;
80707;SDS011;70074;49.204;-122.940;2023-05-10T18:34:19;15.55;;;7.15;;
80707;SDS011;70074;49.204;-122.940;2023-05-10T18:36:45;13.13;;;7.15;;
80707;SDS011;70074;49.204;-122.940;2023-05-10T18:39:12;11.48;;;6.43;;
80707;SDS011;70074;49.204;-122.940;2023-05-10T18:41:38;13.23;;;7.72;;
80707;SDS011;70074;49.204;-122.940;2023-05-10T18:44:04;12.60;;;7.60;;
80707;SDS011;70074;49.204;-122.940;2023-05-10T18:46:30;11.15;;;6.93;;
80707;SDS011;70074;49.204;-122.940;2023-05-10T18:48:57;11.93;;;6.63;;
80707;SDS011;70074;49.204;-122.940;2023-05-10T18:51:23;15.77;;;8.15;;
80707;SDS011;70074;49.204;-122.940;2023-05-10T18:53:50;10.43;;;6.90;;
80707;SDS011;70074;49.204;-122.940;2023-05-10T18:56:16;10.15;;;6.85;;
80707;SDS011;70074;49.204;-122.940;2023-05-10T18:58:43;11.57;;;6.82;;
80707;SDS011;70074;49.204;-122.940;2023-05-10T19:01:09;10.73;;;5.50;;
80707;SDS011;70074;49.204;-122.940;2023-05-10T19:03:35;9.70;;;5.95;;
80707;SDS011;70074;49.204;-122.940;2023-05-10T19:06:01;9.95;;;6.47;;
80707;SDS011;70074;49.204;-122.940;2023-05-10T19:08:28;9.98;;;6.50;;
80707;SDS011;70074;49.204;-122.940;2023-05-10T19:13:20;7.57;;;5.38;;
80707;SDS011;70074;49.204;-122.940;2023-05-10T19:15:47;10.82;;;5.20;;
80707;SDS011;70074;49.204;-122.940;2023-05-10T19:18:31;9.95;;;5.90;;